createdAt,value
2018-07-01T00:00:58.460Z,68.41
2018-07-01T00:01:58.481Z,68.08
2018-07-01T00:02:58.476Z,68.18
2018-07-01T00:03:58.462Z,68.02
2018-07-01T00:04:58.491Z,68.08
2018-07-01T00:05:58.478Z,68.08
2018-07-01T00:06:58.463Z,68.18
2018-07-01T00:07:58.491Z,67.70
2018-07-01T00:08:58.498Z,67.90
2018-07-01T00:09:58.497Z,67.90
2018-07-01T00:10:58.477Z,67.80
2018-07-01T00:11:58.488Z,67.80
2018-07-01T00:12:58.492Z,68.47
2018-07-01T00:13:58.531Z,68.57
2018-07-01T00:14:58.663Z,68.76
2018-07-01T00:15:58.529Z,68.57
2018-07-01T00:16:58.507Z,67.80
2018-07-01T00:17:58.530Z,68.95
2018-07-01T00:18:58.511Z,68.95
2018-07-01T00:19:58.548Z,68.76
2018-07-01T00:20:58.534Z,68.95
2018-07-01T00:21:58.549Z,68.95
2018-07-01T00:22:58.519Z,68.76
2018-07-01T00:23:58.526Z,68.66
2018-07-01T00:24:58.533Z,69.24
2018-07-01T00:25:58.537Z,68.95
2018-07-01T00:26:58.525Z,68.66
2018-07-01T00:27:58.630Z,69.14
2018-07-01T00:28:58.535Z,69.14
2018-07-01T00:29:58.541Z,69.53
2018-07-01T00:30:58.546Z,69.34
2018-07-01T00:31:58.544Z,69.43
2018-07-01T00:32:58.544Z,69.62
2018-07-01T00:33:58.546Z,69.62
2018-07-01T00:34:58.554Z,69.43
2018-07-01T00:35:58.564Z,69.72
2018-07-01T00:36:58.557Z,69.24
2018-07-01T00:37:59.507Z,69.14
2018-07-01T00:38:58.580Z,69.24
2018-07-01T00:39:58.567Z,69.53
2018-07-01T00:40:58.570Z,69.34
2018-07-01T00:41:59.503Z,69.62
2018-07-01T00:42:59.636Z,69.30
2018-07-01T00:43:58.573Z,70.07
2018-07-01T00:44:58.579Z,70.26
2018-07-01T00:45:58.601Z,70.58
2018-07-01T00:46:58.575Z,70.45
2018-07-01T00:47:58.619Z,70.36
2018-07-01T00:48:58.588Z,70.64
2018-07-01T00:49:58.595Z,70.45
2018-07-01T00:50:58.592Z,70.36
2018-07-01T00:51:58.596Z,70.55
2018-07-01T00:52:58.635Z,71.03
2018-07-01T00:53:58.620Z,71.12
2018-07-01T00:54:58.609Z,70.84
2018-07-01T00:55:58.732Z,71.22
2018-07-01T00:56:58.635Z,70.93
2018-07-01T00:57:58.625Z,71.03
2018-07-01T00:58:58.627Z,71.31
2018-07-01T00:59:58.622Z,71.51
2018-07-01T01:00:58.629Z,71.22
2018-07-01T01:01:58.628Z,71.31
2018-07-01T01:02:58.640Z,71.03
2018-07-01T01:03:58.631Z,70.93
2018-07-01T01:04:58.637Z,71.03
2018-07-01T01:05:58.633Z,71.51
2018-07-01T01:06:58.644Z,71.31
2018-07-01T01:07:58.651Z,70.55
2018-07-01T01:08:58.653Z,71.22
2018-07-01T01:09:58.672Z,71.12
2018-07-01T01:10:58.644Z,71.80
2018-07-01T01:11:58.659Z,71.80
2018-07-01T01:12:58.672Z,71.80
2018-07-01T01:13:58.668Z,71.22
2018-07-01T01:14:58.674Z,71.70
2018-07-01T01:15:58.678Z,71.98
2018-07-01T01:16:58.706Z,71.22
2018-07-01T01:17:58.678Z,71.12
2018-07-01T01:18:58.677Z,71.57
2018-07-01T01:19:58.713Z,71.86
2018-07-01T01:20:58.692Z,71.66
2018-07-01T01:21:58.704Z,72.05
2018-07-01T01:22:58.699Z,71.86
2018-07-01T01:23:58.692Z,71.95
2018-07-01T01:24:58.722Z,71.76
2018-07-01T01:25:58.691Z,72.05
2018-07-01T01:26:58.705Z,71.76
2018-07-01T01:27:58.728Z,72.63
2018-07-01T01:28:58.697Z,72.63
2018-07-01T01:29:58.715Z,72.81
2018-07-01T01:30:58.724Z,72.53
2018-07-01T01:31:58.708Z,72.72
2018-07-01T01:32:58.739Z,72.72
2018-07-01T01:33:58.722Z,72.53
2018-07-01T01:34:58.724Z,72.43
2018-07-01T01:35:58.741Z,72.24
2018-07-01T01:36:59.526Z,72.14
2018-07-01T01:37:58.729Z,72.53
2018-07-01T01:38:58.752Z,72.63
2018-07-01T01:39:58.845Z,72.53
2018-07-01T01:40:58.747Z,73.00
2018-07-01T01:41:58.774Z,72.81
2018-07-01T01:42:59.531Z,73.10
2018-07-01T01:43:58.751Z,72.72
2018-07-01T01:44:58.765Z,73.10
2018-07-01T01:45:58.752Z,73.20
2018-07-01T01:46:58.752Z,73.20
2018-07-01T01:47:58.773Z,73.10
2018-07-01T01:48:58.773Z,73.10
2018-07-01T01:49:58.752Z,73.97
2018-07-01T01:50:58.789Z,73.97
2018-07-01T01:51:58.768Z,73.87
2018-07-01T01:52:58.790Z,73.87
2018-07-01T01:53:58.784Z,73.77
2018-07-01T01:54:58.767Z,73.49
2018-07-01T01:55:58.828Z,73.87
2018-07-01T01:56:58.805Z,74.16
2018-07-01T01:57:58.794Z,73.87
2018-07-01T01:58:58.798Z,73.87
2018-07-01T01:59:58.793Z,73.77
2018-07-01T02:00:58.851Z,74.06
2018-07-01T02:01:58.800Z,73.74
2018-07-01T02:02:58.909Z,74.06
2018-07-01T02:03:58.808Z,73.87
2018-07-01T02:04:58.803Z,74.02
2018-07-01T02:05:58.809Z,73.68
2018-07-01T02:06:58.817Z,73.65
2018-07-01T02:07:58.815Z,73.97
2018-07-01T02:08:58.813Z,73.65
2018-07-01T02:09:58.974Z,73.93
2018-07-01T02:10:58.812Z,74.02
2018-07-01T02:11:58.817Z,74.60
2018-07-01T02:12:58.823Z,74.22
2018-07-01T02:13:58.868Z,74.31
2018-07-01T02:14:58.847Z,75.27
2018-07-01T02:15:58.835Z,74.51
2018-07-01T02:16:58.842Z,75.56
2018-07-01T02:17:58.841Z,75.18
2018-07-01T02:18:58.867Z,75.18
2018-07-01T02:19:58.849Z,74.98
2018-07-01T02:20:58.871Z,75.18
2018-07-01T02:21:58.875Z,75.18
2018-07-01T02:22:58.883Z,74.89
2018-07-01T02:23:58.868Z,74.79
2018-07-01T02:24:58.861Z,75.37
2018-07-01T02:25:58.852Z,75.46
2018-07-01T02:26:58.890Z,74.98
2018-07-01T02:27:58.889Z,75.37
2018-07-01T02:28:58.896Z,75.56
2018-07-01T02:29:58.876Z,75.37
2018-07-01T02:30:58.876Z,75.85
2018-07-01T02:31:58.884Z,75.46
2018-07-01T02:32:58.875Z,75.95
2018-07-01T02:33:58.885Z,76.62
2018-07-01T02:34:58.888Z,76.23
2018-07-01T02:35:58.884Z,76.23
2018-07-01T02:36:58.904Z,76.52
2018-07-01T02:37:58.890Z,76.32
2018-07-01T02:38:58.896Z,76.42
2018-07-01T02:39:58.895Z,76.10
2018-07-01T02:40:59.022Z,76.19
2018-07-01T02:41:58.909Z,76.67
2018-07-01T02:42:58.920Z,76.67
2018-07-01T02:43:58.922Z,76.67
2018-07-01T02:44:58.941Z,76.81
2018-07-01T02:45:58.919Z,76.71
2018-07-01T02:46:58.946Z,76.77
2018-07-01T02:47:58.967Z,76.77
2018-07-01T02:48:58.929Z,76.86
2018-07-01T02:49:58.921Z,76.57
2018-07-01T02:50:58.951Z,76.29
2018-07-01T02:51:58.961Z,76.57
2018-07-01T02:52:58.937Z,76.48
2018-07-01T02:53:58.986Z,76.39
2018-07-01T02:54:58.954Z,76.96
2018-07-01T02:55:58.944Z,77.06
2018-07-01T02:56:58.972Z,76.86
2018-07-01T02:57:58.979Z,76.96
2018-07-01T02:58:58.965Z,76.86
2018-07-01T02:59:58.957Z,76.96
2018-07-01T03:00:58.951Z,76.96
2018-07-01T03:01:58.970Z,77.15
2018-07-01T03:02:58.977Z,77.34
2018-07-01T03:03:58.970Z,77.15
2018-07-01T03:04:58.989Z,77.15
2018-07-01T03:05:58.980Z,76.77
2018-07-01T03:06:59.030Z,76.86
2018-07-01T03:07:58.991Z,77.63
2018-07-01T03:08:59.005Z,77.73
2018-07-01T03:09:58.982Z,77.92
2018-07-01T03:10:59.014Z,77.73
2018-07-01T03:11:59.004Z,77.92
2018-07-01T03:12:58.975Z,77.82
2018-07-01T03:13:58.983Z,77.63
2018-07-01T03:14:58.987Z,77.63
2018-07-01T03:15:58.996Z,77.92
2018-07-01T03:16:59.559Z,77.44
2018-07-01T03:17:59.008Z,78.59
2018-07-01T03:18:59.012Z,77.73
2018-07-01T03:19:59.041Z,78.11
2018-07-01T03:20:59.009Z,78.30
2018-07-01T03:21:59.013Z,78.30
2018-07-01T03:22:59.006Z,77.88
2018-07-01T03:23:59.031Z,78.40
2018-07-01T03:24:59.040Z,78.30
2018-07-01T03:25:59.022Z,78.30
2018-07-01T03:26:59.024Z,78.93
2018-07-01T03:27:59.033Z,78.93
2018-07-01T03:28:59.031Z,78.49
2018-07-01T03:29:59.053Z,79.26
2018-07-01T03:30:59.035Z,79.07
2018-07-01T03:31:59.044Z,78.88
2018-07-01T03:32:59.051Z,79.55
2018-07-01T03:33:59.039Z,79.32
2018-07-01T03:34:59.044Z,78.36
2018-07-01T03:35:59.040Z,78.36
2018-07-01T03:36:59.046Z,79.55
2018-07-01T03:37:59.046Z,79.51
2018-07-01T03:38:59.079Z,79.13
2018-07-01T03:39:59.062Z,79.13
2018-07-01T03:40:59.076Z,79.13
2018-07-01T03:41:59.074Z,79.70
2018-07-01T03:42:59.063Z,79.70
2018-07-01T03:43:59.065Z,80.18
2018-07-01T03:44:59.126Z,79.89
2018-07-01T03:45:59.113Z,79.80
2018-07-01T03:46:59.078Z,80.18
2018-07-01T03:47:59.572Z,79.80
2018-07-01T03:48:59.137Z,80.08
2018-07-01T03:49:59.085Z,80.47
2018-07-01T03:50:59.096Z,80.08
2018-07-01T03:51:59.092Z,79.99
2018-07-01T03:52:59.092Z,79.99
2018-07-01T03:53:59.110Z,80.66
2018-07-01T03:54:59.102Z,80.37
2018-07-01T03:55:59.094Z,80.18
2018-07-01T03:56:59.137Z,80.18
2018-07-01T03:57:59.578Z,80.47
2018-07-01T03:58:59.139Z,80.66
2018-07-01T03:59:59.144Z,80.08
2018-07-01T04:00:59.112Z,80.47
2018-07-01T04:01:59.113Z,80.37
2018-07-01T04:02:59.112Z,80.18
2018-07-01T04:03:59.121Z,80.27
2018-07-01T04:04:59.117Z,80.18
2018-07-01T04:05:59.150Z,79.99
2018-07-01T04:06:59.131Z,80.47
2018-07-01T04:07:59.123Z,80.85
2018-07-01T04:08:59.139Z,80.76
2018-07-01T04:09:59.133Z,80.66
2018-07-01T04:10:59.191Z,80.79
2018-07-01T04:11:59.149Z,80.08
2018-07-01T04:12:59.142Z,80.32
2018-07-01T04:13:59.141Z,80.47
2018-07-01T04:14:59.153Z,80.85
2018-07-01T04:15:59.142Z,80.76
2018-07-01T04:16:59.154Z,80.12
2018-07-01T04:17:59.178Z,80.66
2018-07-01T04:18:59.175Z,80.56
2018-07-01T04:19:59.189Z,80.94
2018-07-01T04:20:59.205Z,81.23
2018-07-01T04:21:59.165Z,81.13
2018-07-01T04:22:59.165Z,81.08
2018-07-01T04:23:59.178Z,80.76
2018-07-01T04:24:59.168Z,80.99
2018-07-01T04:25:59.175Z,80.99
2018-07-01T04:26:59.178Z,81.18
2018-07-01T04:27:59.178Z,80.56
2018-07-01T04:29:02.181Z,80.99
2018-07-01T04:29:59.176Z,81.27
2018-07-01T04:30:59.239Z,81.27
2018-07-01T04:31:59.192Z,80.79
2018-07-01T04:32:59.224Z,81.27
2018-07-01T04:33:59.209Z,80.89
2018-07-01T04:34:59.217Z,80.60
2018-07-01T04:35:59.216Z,80.70
2018-07-01T04:36:59.217Z,80.99
2018-07-01T04:37:59.200Z,80.99
2018-07-01T04:38:59.275Z,80.70
2018-07-01T04:39:59.208Z,80.79
2018-07-01T04:40:59.215Z,80.60
2018-07-01T04:41:59.212Z,80.79
2018-07-01T04:42:59.223Z,80.99
2018-07-01T04:43:59.221Z,80.99
2018-07-01T04:44:59.242Z,80.60
2018-07-01T04:45:59.264Z,80.41
2018-07-01T04:46:59.226Z,80.79
2018-07-01T04:47:59.237Z,80.22
2018-07-01T04:48:59.235Z,80.70
2018-07-01T04:49:59.239Z,80.60
2018-07-01T04:50:59.247Z,80.22
2018-07-01T04:51:59.353Z,80.70
2018-07-01T04:52:59.257Z,80.12
2018-07-01T04:53:59.244Z,80.12
2018-07-01T04:54:59.278Z,79.88
2018-07-01T04:55:59.258Z,80.16
2018-07-01T04:56:59.256Z,80.16
2018-07-01T04:57:59.257Z,79.59
2018-07-01T04:58:59.269Z,79.30
2018-07-01T04:59:59.276Z,79.68
2018-07-01T05:00:59.259Z,79.59
2018-07-01T05:01:59.317Z,79.88
2018-07-01T05:02:59.275Z,79.49
2018-07-01T05:03:59.265Z,79.39
2018-07-01T05:04:59.381Z,79.59
2018-07-01T05:05:59.281Z,79.49
2018-07-01T05:06:59.288Z,78.82
2018-07-01T05:07:59.339Z,79.01
2018-07-01T05:08:59.277Z,79.14
2018-07-01T05:09:59.305Z,78.77
2018-07-01T05:10:59.296Z,77.21
2018-07-01T05:11:59.298Z,74.11
2018-07-01T05:12:59.302Z,71.01
2018-07-01T05:13:59.311Z,67.84
2018-07-01T05:14:59.292Z,65.47
2018-07-01T05:15:59.330Z,64.63
2018-07-01T05:16:59.324Z,64.37
2018-07-01T05:17:59.310Z,62.54
2018-07-01T05:18:59.330Z,62.41
2018-07-01T05:19:59.314Z,61.60
2018-07-01T05:20:59.331Z,62.08
2018-07-01T05:21:59.332Z,60.57
2018-07-01T05:22:59.364Z,60.44
2018-07-01T05:23:59.362Z,61.22
2018-07-01T05:24:59.321Z,61.63
2018-07-01T05:25:59.327Z,61.51
2018-07-01T05:26:59.338Z,60.99
2018-07-01T05:27:59.352Z,59.12
2018-07-01T05:28:59.352Z,59.99
2018-07-01T05:29:59.351Z,58.86
2018-07-01T05:30:59.360Z,58.87
2018-07-01T05:31:59.366Z,60.99
2018-07-01T05:32:59.473Z,59.34
2018-07-01T05:33:59.362Z,58.93
2018-07-01T05:34:59.366Z,58.31
2018-07-01T05:35:59.437Z,58.83
2018-07-01T05:36:59.384Z,60.73
2018-07-01T05:37:59.395Z,62.02
2018-07-01T05:38:59.383Z,64.02
2018-07-01T05:39:59.384Z,63.28
2018-07-01T05:40:59.389Z,62.18
2018-07-01T05:41:59.419Z,61.05
2018-07-01T05:42:59.444Z,59.18
2018-07-01T05:43:59.426Z,58.04
2018-07-01T05:44:59.426Z,58.98
2018-07-01T05:45:59.444Z,57.79
2018-07-01T05:46:59.449Z,57.37
2018-07-01T05:47:59.447Z,58.18
2018-07-01T05:48:59.448Z,58.83
2018-07-01T05:49:59.440Z,58.86
2018-07-01T05:50:59.471Z,58.93
2018-07-01T05:51:59.480Z,58.80
2018-07-01T05:52:59.472Z,58.40
2018-07-01T05:53:59.472Z,57.44
2018-07-01T05:54:59.480Z,57.89
2018-07-01T05:56:00.133Z,57.20
2018-07-01T05:56:59.520Z,55.42
2018-07-01T05:57:59.487Z,54.21
2018-07-01T05:58:59.519Z,53.80
2018-07-01T05:59:59.539Z,55.53
2018-07-01T06:00:59.551Z,57.73
2018-07-01T06:01:59.524Z,57.46
2018-07-01T06:02:59.562Z,56.24
2018-07-01T06:03:59.551Z,55.88
2018-07-01T06:04:59.560Z,55.22
2018-07-01T06:05:59.605Z,56.04
2018-07-01T06:06:59.560Z,56.34
2018-07-01T06:07:59.576Z,55.49
2018-07-01T06:08:59.592Z,55.54
2018-07-01T06:09:59.573Z,53.37
2018-07-01T06:10:59.595Z,54.64
2018-07-01T06:11:59.622Z,53.83
2018-07-01T06:12:59.631Z,52.69
2018-07-01T06:13:59.675Z,52.18
2018-07-01T06:14:59.622Z,54.33
2018-07-01T06:15:59.630Z,55.24
2018-07-01T06:16:59.650Z,55.22
2018-07-01T06:17:59.666Z,53.92
2018-07-01T06:18:59.715Z,53.58
2018-07-01T06:19:59.710Z,52.40
2018-07-01T06:20:59.680Z,53.12
2018-07-01T06:21:59.717Z,53.83
2018-07-01T06:22:59.735Z,53.80
2018-07-01T06:24:00.637Z,52.64
2018-07-01T06:24:59.768Z,52.28
2018-07-01T06:25:59.760Z,50.68
2018-07-01T06:26:59.726Z,50.60
2018-07-01T06:27:59.752Z,51.72
2018-07-01T06:28:59.776Z,52.08
2018-07-01T06:29:59.768Z,52.06
2018-07-01T06:30:59.773Z,50.85
2018-07-01T06:31:59.814Z,50.38
2018-07-01T06:32:59.813Z,50.65
2018-07-01T06:33:59.792Z,49.82
2018-07-01T06:34:59.805Z,50.56
2018-07-01T06:35:59.822Z,50.68
2018-07-01T06:36:59.819Z,50.70
2018-07-01T06:37:59.829Z,50.48
2018-07-01T06:38:59.842Z,51.11
2018-07-01T06:39:59.850Z,51.06
2018-07-01T06:40:59.869Z,49.44
2018-07-01T06:41:59.986Z,49.90
2018-07-01T06:42:59.913Z,49.56
2018-07-01T06:43:59.893Z,50.07
2018-07-01T06:44:59.931Z,51.37
2018-07-01T06:45:59.991Z,50.19
2018-07-01T06:46:59.949Z,49.27
2018-07-01T06:48:00.025Z,47.44
2018-07-01T06:48:59.994Z,48.57
2018-07-01T06:49:59.983Z,49.44
2018-07-01T06:50:59.970Z,49.85
2018-07-01T06:51:59.996Z,50.62
2018-07-01T06:53:00.014Z,49.00
2018-07-01T06:54:00.013Z,47.05
2018-07-01T06:55:00.051Z,47.03
2018-07-01T06:56:00.047Z,45.76
2018-07-01T06:57:00.046Z,47.13
2018-07-01T06:58:00.085Z,48.18
2018-07-01T06:59:00.064Z,48.85
2018-07-01T07:00:00.101Z,49.58
2018-07-01T07:01:00.093Z,47.49
2018-07-01T07:02:00.661Z,48.64
2018-07-01T07:03:00.114Z,49.12
2018-07-01T07:04:00.131Z,47.55
2018-07-01T07:05:00.132Z,48.97
2018-07-01T07:06:00.145Z,47.37
2018-07-01T07:07:00.149Z,45.18
2018-07-01T07:08:00.184Z,47.57
2018-07-01T07:09:00.178Z,47.13
2018-07-01T07:10:00.235Z,45.72
2018-07-01T07:11:00.283Z,45.75
2018-07-01T07:12:01.163Z,46.06
2018-07-01T07:13:00.270Z,46.96
2018-07-01T07:14:00.281Z,48.13
2018-07-01T07:15:00.310Z,46.86
2018-07-01T07:16:00.267Z,47.01
2018-07-01T07:17:00.295Z,45.10
2018-07-01T07:18:00.311Z,46.53
2018-07-01T07:19:00.316Z,45.83
2018-07-01T07:20:00.337Z,46.02
2018-07-01T07:21:00.342Z,46.94
2018-07-01T07:22:00.347Z,45.26
2018-07-01T07:23:00.365Z,45.34
2018-07-01T07:24:00.381Z,45.78
2018-07-01T07:25:00.384Z,44.95
2018-07-01T07:26:00.424Z,43.61
2018-07-01T07:27:00.429Z,43.12
2018-07-01T07:28:00.420Z,43.10
2018-07-01T07:29:00.476Z,43.05
2018-07-01T07:30:00.508Z,43.62
2018-07-01T07:31:00.478Z,45.61
2018-07-01T07:32:00.658Z,44.19
2018-07-01T07:33:00.520Z,43.19
2018-07-01T07:34:00.524Z,41.93
2018-07-01T07:35:00.524Z,41.86
2018-07-01T07:36:00.561Z,44.32
2018-07-01T07:37:00.607Z,44.49
2018-07-01T07:38:00.552Z,44.87
2018-07-01T07:39:00.578Z,43.57
2018-07-01T07:40:00.596Z,44.37
2018-07-01T07:41:00.623Z,43.74
2018-07-01T07:42:00.617Z,44.07
2018-07-01T07:43:00.636Z,43.57
2018-07-01T07:44:00.652Z,43.15
2018-07-01T07:45:00.827Z,42.08
2018-07-01T07:46:00.691Z,42.35
2018-07-01T07:47:00.704Z,42.40
2018-07-01T07:48:00.727Z,43.01
2018-07-01T07:49:00.722Z,42.61
2018-07-01T07:50:00.742Z,42.89
2018-07-01T07:51:00.746Z,43.74
2018-07-01T07:52:00.776Z,44.10
2018-07-01T07:53:00.771Z,43.76
2018-07-01T07:54:00.894Z,43.12
2018-07-01T07:55:00.861Z,42.81
2018-07-01T07:56:00.812Z,43.32
2018-07-01T07:57:00.931Z,43.15
2018-07-01T07:58:00.849Z,42.36
2018-07-01T07:59:00.873Z,43.01
2018-07-01T08:00:00.875Z,43.66
2018-07-01T08:01:00.885Z,43.37
2018-07-01T08:02:00.935Z,43.12
2018-07-01T08:03:00.928Z,43.08
2018-07-01T08:04:01.108Z,43.44
2018-07-01T08:05:00.982Z,41.80
2018-07-01T08:06:01.003Z,41.47
2018-07-01T08:07:00.995Z,42.08
2018-07-01T08:08:01.006Z,42.08
2018-07-01T08:09:01.007Z,42.02
2018-07-01T08:10:01.031Z,40.66
2018-07-01T08:11:01.037Z,41.55
2018-07-01T08:12:01.068Z,40.91
2018-07-01T08:13:01.130Z,41.38
2018-07-01T08:14:01.094Z,41.64
2018-07-01T08:15:01.105Z,42.21
2018-07-01T08:16:01.109Z,41.49
2018-07-01T08:17:01.134Z,40.03
2018-07-01T08:18:01.168Z,40.54
2018-07-01T08:19:01.180Z,40.89
2018-07-01T08:20:01.185Z,42.11
2018-07-01T08:21:01.215Z,42.40
2018-07-01T08:22:01.251Z,41.94
2018-07-01T08:23:01.229Z,42.57
2018-07-01T08:24:01.371Z,42.48
2018-07-01T08:25:01.269Z,43.54
2018-07-01T08:26:01.273Z,43.62
2018-07-01T08:27:01.488Z,43.52
2018-07-01T08:28:01.331Z,43.76
2018-07-01T08:29:01.360Z,42.61
2018-07-01T08:30:01.365Z,41.94
2018-07-01T08:31:01.405Z,42.19
2018-07-01T08:32:01.389Z,42.35
2018-07-01T08:33:01.406Z,41.92
2018-07-01T08:34:01.426Z,41.67
2018-07-01T08:35:01.427Z,41.69
2018-07-01T08:36:01.449Z,41.30
2018-07-01T08:37:01.495Z,41.51
2018-07-01T08:38:01.482Z,40.64
2018-07-01T08:39:01.530Z,40.77
2018-07-01T08:40:01.572Z,40.85
2018-07-01T08:41:01.546Z,41.74
2018-07-01T08:42:01.531Z,42.02
2018-07-01T08:43:01.586Z,41.82
2018-07-01T08:44:01.570Z,41.98
2018-07-01T08:45:01.607Z,40.95
2018-07-01T08:46:02.237Z,41.30
2018-07-01T08:47:01.613Z,40.87
2018-07-01T08:48:01.640Z,41.64
2018-07-01T08:49:01.655Z,40.89
2018-07-01T08:50:01.676Z,40.81
2018-07-01T08:51:01.718Z,41.08
2018-07-01T08:52:01.761Z,41.63
2018-07-01T08:53:01.757Z,42.40
2018-07-01T08:54:01.816Z,41.84
2018-07-01T08:55:01.808Z,41.13
2018-07-01T08:56:01.806Z,40.64
2018-07-01T08:57:01.799Z,41.57
2018-07-01T08:58:01.874Z,41.74
2018-07-01T08:59:01.828Z,42.49
2018-07-01T09:00:01.878Z,41.13
2018-07-01T09:01:01.928Z,40.34
2018-07-01T09:02:01.920Z,41.08
2018-07-01T09:03:01.931Z,40.72
2018-07-01T09:04:01.919Z,40.33
2018-07-01T09:05:01.958Z,41.28
2018-07-01T09:06:02.095Z,42.03
2018-07-01T09:07:02.015Z,41.86
2018-07-01T09:08:01.987Z,40.25
2018-07-01T09:09:02.039Z,41.26
2018-07-01T09:10:02.055Z,41.16
2018-07-01T09:11:02.054Z,40.89
2018-07-01T09:12:02.088Z,40.39
2018-07-01T09:13:02.090Z,40.89
2018-07-01T09:14:02.147Z,40.26
2018-07-01T09:15:02.121Z,40.56
2018-07-01T09:16:02.294Z,40.95
2018-07-01T09:17:02.262Z,41.43
2018-07-01T09:18:02.236Z,40.77
2018-07-01T09:19:02.201Z,40.66
2018-07-01T09:20:02.204Z,40.77
2018-07-01T09:21:02.244Z,40.31
2018-07-01T09:22:02.256Z,39.92
2018-07-01T09:23:02.284Z,40.85
2018-07-01T09:24:02.274Z,40.11
2018-07-01T09:25:02.326Z,38.95
2018-07-01T09:26:02.351Z,39.43
2018-07-01T09:27:02.330Z,39.43
2018-07-01T09:28:02.361Z,39.84
2018-07-01T09:29:02.397Z,38.44
2018-07-01T09:30:02.431Z,37.55
2018-07-01T09:31:02.425Z,35.61
2018-07-01T09:32:02.466Z,34.91
2018-07-01T09:33:02.470Z,35.38
2018-07-01T09:34:02.487Z,35.26
2018-07-01T09:35:02.497Z,35.60
2018-07-01T09:36:02.516Z,35.75
2018-07-01T09:37:02.593Z,35.91
2018-07-01T09:38:02.565Z,35.94
2018-07-01T09:39:02.598Z,35.75
2018-07-01T09:40:02.597Z,36.85
2018-07-01T09:41:02.692Z,37.32
2018-07-01T09:42:02.658Z,39.22
2018-07-01T09:43:02.649Z,38.29
2018-07-01T09:44:02.709Z,38.31
2018-07-01T09:45:02.704Z,37.29
2018-07-01T09:46:02.770Z,35.78
2018-07-01T09:47:02.754Z,35.67
2018-07-01T09:48:02.879Z,36.22
2018-07-01T09:49:02.764Z,35.60
2018-07-01T09:50:02.834Z,36.73
2018-07-01T09:51:02.813Z,38.27
2018-07-01T09:52:02.827Z,38.96
2018-07-01T09:53:02.842Z,39.59
2018-07-01T09:54:02.877Z,38.54
2018-07-01T09:55:02.936Z,38.42
2018-07-01T09:56:02.930Z,37.66
2018-07-01T09:57:02.975Z,38.11
2018-07-01T09:58:02.952Z,38.52
2018-07-01T09:59:02.982Z,38.46
2018-07-01T10:00:02.981Z,37.02
2018-07-01T10:01:03.007Z,37.05
2018-07-01T10:02:03.033Z,36.25
2018-07-01T10:03:03.038Z,36.71
2018-07-01T10:04:03.241Z,37.92
2018-07-01T10:05:03.786Z,39.10
2018-07-01T10:06:03.135Z,38.23
2018-07-01T10:07:03.188Z,38.87
2018-07-01T10:08:03.145Z,39.45
2018-07-01T10:09:03.191Z,38.50
2018-07-01T10:10:03.214Z,38.60
2018-07-01T10:11:03.222Z,38.31
2018-07-01T10:12:03.286Z,38.52
2018-07-01T10:13:03.304Z,39.12
2018-07-01T10:14:03.334Z,38.56
2018-07-01T10:15:04.293Z,38.46
2018-07-01T10:16:03.361Z,38.07
2018-07-01T10:17:03.330Z,38.50
2018-07-01T10:18:03.374Z,38.15
2018-07-01T10:19:03.388Z,37.00
2018-07-01T10:20:03.396Z,36.10
2018-07-01T10:21:03.449Z,37.26
2018-07-01T10:22:03.445Z,37.64
2018-07-01T10:23:03.477Z,38.11
2018-07-01T10:24:03.482Z,38.19
2018-07-01T10:25:03.504Z,38.42
2018-07-01T10:26:03.509Z,39.51
2018-07-01T10:27:03.563Z,39.75
2018-07-01T10:28:03.584Z,38.23
2018-07-01T10:29:03.598Z,37.93
2018-07-01T10:30:03.626Z,38.19
2018-07-01T10:31:03.632Z,39.06
2018-07-01T10:32:03.660Z,40.89
2018-07-01T10:33:03.671Z,40.08
2018-07-01T10:34:03.678Z,39.34
2018-07-01T10:35:03.724Z,39.80
2018-07-01T10:36:03.725Z,40.73
2018-07-01T10:37:03.723Z,40.89
2018-07-01T10:38:03.734Z,39.94
2018-07-01T10:39:03.762Z,40.13
2018-07-01T10:40:03.819Z,39.36
2018-07-01T10:41:03.801Z,40.52
2018-07-01T10:42:03.802Z,40.48
2018-07-01T10:43:03.865Z,40.64
2018-07-01T10:44:03.863Z,41.05
2018-07-01T10:45:03.860Z,41.33
2018-07-01T10:46:03.889Z,41.26
2018-07-01T10:47:03.935Z,40.50
2018-07-01T10:48:03.891Z,40.09
2018-07-01T10:49:05.831Z,40.67
2018-07-01T10:50:03.932Z,40.64
2018-07-01T10:51:03.961Z,41.00
2018-07-01T10:52:03.965Z,41.08
2018-07-01T10:53:03.991Z,41.64
2018-07-01T10:54:03.980Z,41.64
2018-07-01T10:55:04.012Z,41.64
2018-07-01T10:56:04.007Z,42.22
2018-07-01T10:57:04.158Z,41.66
2018-07-01T10:58:04.026Z,41.70
2018-07-01T10:59:04.079Z,42.40
2018-07-01T11:00:04.058Z,42.97
2018-07-01T11:01:04.055Z,42.88
2018-07-01T11:02:04.069Z,42.88
2018-07-01T11:03:04.082Z,43.17
2018-07-01T11:04:04.084Z,42.97
2018-07-01T11:05:04.098Z,42.51
2018-07-01T11:06:04.132Z,41.93
2018-07-01T11:07:04.111Z,42.41
2018-07-01T11:08:04.121Z,42.71
2018-07-01T11:09:04.159Z,43.09
2018-07-01T11:10:04.165Z,43.87
2018-07-01T11:11:04.169Z,43.19
2018-07-01T11:12:04.169Z,43.58
2018-07-01T11:13:04.192Z,43.87
2018-07-01T11:14:04.182Z,43.58
2018-07-01T11:15:04.194Z,43.58
2018-07-01T11:16:04.193Z,43.48
2018-07-01T11:17:04.205Z,43.38
2018-07-01T11:18:04.214Z,43.19
2018-07-01T11:19:04.244Z,43.89
2018-07-01T11:20:04.231Z,44.45
2018-07-01T11:21:04.244Z,44.13
2018-07-01T11:22:04.246Z,44.62
2018-07-01T11:23:04.269Z,44.64
2018-07-01T11:24:04.295Z,44.57
2018-07-01T11:25:04.301Z,43.60
2018-07-01T11:26:04.299Z,43.02
2018-07-01T11:27:04.492Z,43.48
2018-07-01T11:28:04.317Z,44.23
2018-07-01T11:29:04.297Z,44.16
2018-07-01T11:30:04.324Z,44.84
2018-07-01T11:31:04.306Z,44.84
2018-07-01T11:32:04.332Z,45.13
2018-07-01T11:33:04.340Z,44.64
2018-07-01T11:34:04.332Z,44.84
2018-07-01T11:35:04.386Z,44.74
2018-07-01T11:36:04.345Z,44.54
2018-07-01T11:37:04.358Z,44.76
2018-07-01T11:38:04.460Z,44.20
2018-07-01T11:39:04.373Z,43.62
2018-07-01T11:40:04.388Z,43.82
2018-07-01T11:41:04.390Z,43.04
2018-07-01T11:42:04.391Z,42.65
2018-07-01T11:43:04.413Z,43.00
2018-07-01T11:44:04.407Z,42.90
2018-07-01T11:45:04.405Z,42.80
2018-07-01T11:46:04.429Z,42.71
2018-07-01T11:47:04.422Z,41.72
2018-07-01T11:48:04.509Z,42.18
2018-07-01T11:49:04.448Z,42.59
2018-07-01T11:50:04.446Z,42.30
2018-07-01T11:51:04.475Z,42.14
2018-07-01T11:52:04.481Z,41.56
2018-07-01T11:53:04.460Z,41.78
2018-07-01T11:54:04.491Z,41.12
2018-07-01T11:55:04.476Z,41.20
2018-07-01T11:56:04.502Z,41.97
2018-07-01T11:57:04.503Z,42.96
2018-07-01T11:58:04.607Z,41.88
2018-07-01T11:59:04.504Z,41.78
2018-07-01T12:00:04.591Z,41.97
2018-07-01T12:01:04.527Z,41.86
2018-07-01T12:02:04.528Z,41.78
2018-07-01T12:03:11.524Z,42.34
2018-07-01T12:04:04.547Z,41.66
2018-07-01T12:05:16.657Z,42.14
2018-07-01T12:06:04.570Z,41.64
2018-07-01T12:07:04.589Z,41.64
2018-07-01T12:08:04.569Z,41.64
2018-07-01T12:09:04.608Z,41.37
2018-07-01T12:10:04.576Z,41.45
2018-07-01T12:11:04.636Z,41.06
2018-07-01T12:12:04.676Z,41.35
2018-07-01T12:13:04.588Z,41.45
2018-07-01T12:14:04.625Z,41.55
2018-07-01T12:15:04.625Z,41.55
2018-07-01T12:16:04.632Z,41.56
2018-07-01T12:17:04.621Z,41.45
2018-07-01T12:18:04.618Z,41.83
2018-07-01T12:19:04.626Z,41.06
2018-07-01T12:20:04.653Z,41.35
2018-07-01T12:21:04.652Z,41.64
2018-07-01T12:22:04.660Z,41.55
2018-07-01T12:23:04.649Z,41.27
2018-07-01T12:24:04.685Z,40.96
2018-07-01T12:25:04.660Z,41.25
2018-07-01T12:26:04.691Z,41.47
2018-07-01T12:27:04.681Z,41.27
2018-07-01T12:28:04.700Z,41.27
2018-07-01T12:29:04.694Z,41.37
2018-07-01T12:30:04.701Z,41.17
2018-07-01T12:31:04.704Z,40.99
2018-07-01T12:32:04.710Z,40.99
2018-07-01T12:33:04.717Z,41.17
2018-07-01T12:34:04.751Z,41.47
2018-07-01T12:35:04.725Z,40.99
2018-07-01T12:36:04.734Z,41.35
2018-07-01T12:37:04.765Z,41.66
2018-07-01T12:38:04.778Z,41.47
2018-07-01T12:39:04.899Z,41.56
2018-07-01T12:40:04.863Z,41.37
2018-07-01T12:41:04.889Z,41.25
2018-07-01T12:42:04.876Z,41.95
2018-07-01T12:43:04.771Z,41.76
2018-07-01T12:44:04.867Z,41.45
2018-07-01T12:45:04.808Z,42.32
2018-07-01T12:46:04.789Z,42.92
2018-07-01T12:47:04.797Z,43.23
2018-07-01T12:48:04.815Z,42.14
2018-07-01T12:49:04.865Z,41.66
2018-07-01T12:54:41.157Z,42.78
2018-07-01T12:55:41.227Z,43.07
2018-07-01T12:57:34.684Z,43.09
2018-07-01T12:58:34.710Z,43.02